sensor_id;sensor_type;location;lat;lon;timestamp;temperature;humidity
262;DHT22;114;48.260;10.988;2024-02-23T00:01:21;7.90;1.00
262;DHT22;114;48.260;10.988;2024-02-23T00:03:47;8.00;1.00
262;DHT22;114;48.260;10.988;2024-02-23T00:06:12;7.90;1.00
262;DHT22;114;48.260;10.988;2024-02-23T00:08:40;7.80;1.00
262;DHT22;114;48.260;10.988;2024-02-23T00:11:07;8.00;1.00
262;DHT22;114;48.260;10.988;2024-02-23T00:13:33;7.70;1.00
262;DHT22;114;48.260;10.988;2024-02-23T00:16:01;7.70;1.00
262;DHT22;114;48.260;10.988;2024-02-23T00:18:28;7.70;1.00
262;DHT22;114;48.260;10.988;2024-02-23T00:20:53;7.60;1.00
262;DHT22;114;48.260;10.988;2024-02-23T00:23:20;7.60;1.00
262;DHT22;114;48.260;10.988;2024-02-23T00:25:46;7.60;1.00
262;DHT22;114;48.260;10.988;2024-02-23T00:28:17;7.60;1.00
262;DHT22;114;48.260;10.988;2024-02-23T00:30:44;7.60;1.00
262;DHT22;114;48.260;10.988;2024-02-23T00:33:10;7.60;1.00
262;DHT22;114;48.260;10.988;2024-02-23T00:35:36;7.60;1.00
262;DHT22;114;48.260;10.988;2024-02-23T00:38:02;7.60;1.00
262;DHT22;114;48.260;10.988;2024-02-23T00:40:30;7.60;1.00
262;DHT22;114;48.260;10.988;2024-02-23T00:42:56;7.60;1.00
262;DHT22;114;48.260;10.988;2024-02-23T00:45:22;7.50;1.00
262;DHT22;114;48.260;10.988;2024-02-23T00:47:49;7.50;1.00
262;DHT22;114;48.260;10.988;2024-02-23T00:50:16;7.60;1.00
262;DHT22;114;48.260;10.988;2024-02-23T00:52:43;7.60;1.00
262;DHT22;114;48.260;10.988;2024-02-23T00:55:09;7.60;1.00
262;DHT22;114;48.260;10.988;2024-02-23T00:57:36;7.50;1.00
262;DHT22;114;48.260;10.988;2024-02-23T01:00:04;7.40;1.00
262;DHT22;114;48.260;10.988;2024-02-23T01:02:34;7.40;1.00
262;DHT22;114;48.260;10.988;2024-02-23T01:05:01;7.40;1.00
262;DHT22;114;48.260;10.988;2024-02-23T01:07:27;7.40;1.00
262;DHT22;114;48.260;10.988;2024-02-23T01:09:53;7.30;1.00
262;DHT22;114;48.260;10.988;2024-02-23T01:12:20;7.50;1.00
262;DHT22;114;48.260;10.988;2024-02-23T01:14:47;7.30;1.00
262;DHT22;114;48.260;10.988;2024-02-23T01:17:14;7.30;1.00
262;DHT22;114;48.260;10.988;2024-02-23T01:19:43;7.50;1.00
262;DHT22;114;48.260;10.988;2024-02-23T01:22:10;7.30;1.00
262;DHT22;114;48.260;10.988;2024-02-23T01:24:36;7.20;1.00
262;DHT22;114;48.260;10.988;2024-02-23T01:27:02;7.20;1.00
262;DHT22;114;48.260;10.988;2024-02-23T01:29:27;7.20;1.00
262;DHT22;114;48.260;10.988;2024-02-23T01:31:53;7.10;1.00
262;DHT22;114;48.260;10.988;2024-02-23T01:34:22;7.10;1.00
262;DHT22;114;48.260;10.988;2024-02-23T01:36:47;7.20;1.00
262;DHT22;114;48.260;10.988;2024-02-23T01:39:14;7.30;1.00
262;DHT22;114;48.260;10.988;2024-02-23T01:41:39;7.00;1.00
262;DHT22;114;48.260;10.988;2024-02-23T01:44:08;7.00;1.00
262;DHT22;114;48.260;10.988;2024-02-23T01:46:33;7.10;1.00
262;DHT22;114;48.260;10.988;2024-02-23T01:49:00;7.10;1.00
262;DHT22;114;48.260;10.988;2024-02-23T01:51:26;7.00;1.00
262;DHT22;114;48.260;10.988;2024-02-23T01:53:52;7.20;1.00
262;DHT22;114;48.260;10.988;2024-02-23T01:56:18;7.10;1.00
262;DHT22;114;48.260;10.988;2024-02-23T01:58:46;7.00;1.00
262;DHT22;114;48.260;10.988;2024-02-23T02:01:12;6.90;1.00
262;DHT22;114;48.260;10.988;2024-02-23T02:03:40;6.90;1.00
262;DHT22;114;48.260;10.988;2024-02-23T02:06:06;6.80;1.00
262;DHT22;114;48.260;10.988;2024-02-23T02:08:39;6.80;1.00
262;DHT22;114;48.260;10.988;2024-02-23T02:11:05;6.90;1.00
262;DHT22;114;48.260;10.988;2024-02-23T02:13:31;6.90;1.00
262;DHT22;114;48.260;10.988;2024-02-23T02:16:01;6.60;1.00
262;DHT22;114;48.260;10.988;2024-02-23T02:18:28;6.60;1.00
262;DHT22;114;48.260;10.988;2024-02-23T02:20:57;6.60;1.00
262;DHT22;114;48.260;10.988;2024-02-23T02:23:23;6.70;1.00
262;DHT22;114;48.260;10.988;2024-02-23T02:25:56;6.80;1.00
262;DHT22;114;48.260;10.988;2024-02-23T02:28:23;6.60;1.00
262;DHT22;114;48.260;10.988;2024-02-23T02:30:51;6.60;1.00
262;DHT22;114;48.260;10.988;2024-02-23T02:33:21;6.60;1.00
262;DHT22;114;48.260;10.988;2024-02-23T02:35:47;6.60;1.00
262;DHT22;114;48.260;10.988;2024-02-23T02:38:13;6.50;1.00
262;DHT22;114;48.260;10.988;2024-02-23T02:40:39;6.50;1.00
262;DHT22;114;48.260;10.988;2024-02-23T02:43:05;6.50;1.00
262;DHT22;114;48.260;10.988;2024-02-23T02:45:31;6.40;1.00
262;DHT22;114;48.260;10.988;2024-02-23T02:47:57;6.40;1.00
262;DHT22;114;48.260;10.988;2024-02-23T02:50:23;6.00;1.00
262;DHT22;114;48.260;10.988;2024-02-23T02:52:55;5.60;1.00
262;DHT22;114;48.260;10.988;2024-02-23T02:55:21;5.30;1.00
262;DHT22;114;48.260;10.988;2024-02-23T02:57:47;5.10;1.00
262;DHT22;114;48.260;10.988;2024-02-23T03:00:14;4.90;1.00
262;DHT22;114;48.260;10.988;2024-02-23T03:02:39;4.80;1.00
262;DHT22;114;48.260;10.988;2024-02-23T03:05:06;4.70;1.00
262;DHT22;114;48.260;10.988;2024-02-23T03:07:32;4.70;1.00
262;DHT22;114;48.260;10.988;2024-02-23T03:09:58;4.70;1.00
262;DHT22;114;48.260;10.988;2024-02-23T03:12:23;4.60;1.00
262;DHT22;114;48.260;10.988;2024-02-23T03:14:49;4.60;1.00
262;DHT22;114;48.260;10.988;2024-02-23T03:17:16;4.70;1.00
262;DHT22;114;48.260;10.988;2024-02-23T03:19:41;4.50;1.00
262;DHT22;114;48.260;10.988;2024-02-23T03:22:07;4.60;1.00
262;DHT22;114;48.260;10.988;2024-02-23T03:24:33;4.40;1.00
262;DHT22;114;48.260;10.988;2024-02-23T03:27:01;4.50;1.00
262;DHT22;114;48.260;10.988;2024-02-23T03:29:27;4.50;1.00
262;DHT22;114;48.260;10.988;2024-02-23T03:31:55;4.60;1.00
262;DHT22;114;48.260;10.988;2024-02-23T03:34:21;4.50;1.00
262;DHT22;114;48.260;10.988;2024-02-23T03:36:47;4.60;1.00
262;DHT22;114;48.260;10.988;2024-02-23T03:39:13;4.70;1.00
262;DHT22;114;48.260;10.988;2024-02-23T03:41:39;4.70;1.00
262;DHT22;114;48.260;10.988;2024-02-23T03:44:05;4.70;1.00
262;DHT22;114;48.260;10.988;2024-02-23T03:46:30;4.80;1.00
262;DHT22;114;48.260;10.988;2024-02-23T03:48:56;4.80;1.00
262;DHT22;114;48.260;10.988;2024-02-23T03:51:24;4.70;1.00
262;DHT22;114;48.260;10.988;2024-02-23T03:53:50;4.70;1.00
262;DHT22;114;48.260;10.988;2024-02-23T03:56:16;4.70;1.00
262;DHT22;114;48.260;10.988;2024-02-23T03:58:43;4.80;1.00
262;DHT22;114;48.260;10.988;2024-02-23T04:01:10;4.70;1.00
262;DHT22;114;48.260;10.988;2024-02-23T04:03:35;4.80;1.00
262;DHT22;114;48.260;10.988;2024-02-23T04:06:01;4.70;1.00
262;DHT22;114;48.260;10.988;2024-02-23T04:08:28;4.70;1.00
262;DHT22;114;48.260;10.988;2024-02-23T04:10:53;4.80;1.00
262;DHT22;114;48.260;10.988;2024-02-23T04:13:20;4.90;1.00
262;DHT22;114;48.260;10.988;2024-02-23T04:15:46;4.90;1.00
262;DHT22;114;48.260;10.988;2024-02-23T04:18:12;4.90;1.00
262;DHT22;114;48.260;10.988;2024-02-23T04:20:38;5.00;1.00
262;DHT22;114;48.260;10.988;2024-02-23T04:23:03;5.00;1.00
262;DHT22;114;48.260;10.988;2024-02-23T04:25:29;5.10;1.00
262;DHT22;114;48.260;10.988;2024-02-23T04:27:56;5.20;1.00
262;DHT22;114;48.260;10.988;2024-02-23T04:30:22;5.20;1.00
262;DHT22;114;48.260;10.988;2024-02-23T04:32:49;5.20;1.00
262;DHT22;114;48.260;10.988;2024-02-23T04:35:15;5.20;1.00
262;DHT22;114;48.260;10.988;2024-02-23T04:37:43;5.30;1.00
262;DHT22;114;48.260;10.988;2024-02-23T04:40:10;5.30;1.00
262;DHT22;114;48.260;10.988;2024-02-23T04:42:37;5.30;1.00
262;DHT22;114;48.260;10.988;2024-02-23T04:45:04;5.30;1.00
262;DHT22;114;48.260;10.988;2024-02-23T04:47:30;5.30;1.00
262;DHT22;114;48.260;10.988;2024-02-23T04:49:55;5.30;1.00
262;DHT22;114;48.260;10.988;2024-02-23T04:52:21;5.30;1.00
262;DHT22;114;48.260;10.988;2024-02-23T04:54:47;5.30;1.00
262;DHT22;114;48.260;10.988;2024-02-23T04:57:15;5.40;1.00
262;DHT22;114;48.260;10.988;2024-02-23T04:59:41;5.30;1.00
262;DHT22;114;48.260;10.988;2024-02-23T05:02:08;5.50;1.00
262;DHT22;114;48.260;10.988;2024-02-23T05:04:36;5.30;1.00
262;DHT22;114;48.260;10.988;2024-02-23T05:07:01;5.50;1.00
262;DHT22;114;48.260;10.988;2024-02-23T05:09:30;5.40;1.00
262;DHT22;114;48.260;10.988;2024-02-23T05:11:57;5.30;1.00
262;DHT22;114;48.260;10.988;2024-02-23T05:14:22;5.40;1.00
262;DHT22;114;48.260;10.988;2024-02-23T05:16:48;5.20;1.00
262;DHT22;114;48.260;10.988;2024-02-23T05:19:14;5.20;1.00
262;DHT22;114;48.260;10.988;2024-02-23T05:21:39;5.40;1.00
262;DHT22;114;48.260;10.988;2024-02-23T05:24:06;5.30;1.00
262;DHT22;114;48.260;10.988;2024-02-23T05:26:32;5.10;1.00
262;DHT22;114;48.260;10.988;2024-02-23T05:28:57;5.40;1.00
262;DHT22;114;48.260;10.988;2024-02-23T05:31:44;5.10;1.00
262;DHT22;114;48.260;10.988;2024-02-23T05:34:12;5.30;1.00
262;DHT22;114;48.260;10.988;2024-02-23T05:36:37;5.10;1.00
262;DHT22;114;48.260;10.988;2024-02-23T05:39:08;5.20;1.00
262;DHT22;114;48.260;10.988;2024-02-23T05:41:35;5.10;1.00
262;DHT22;114;48.260;10.988;2024-02-23T05:44:02;5.10;1.00
262;DHT22;114;48.260;10.988;2024-02-23T05:46:34;5.00;1.00
262;DHT22;114;48.260;10.988;2024-02-23T05:49:00;5.00;1.00
262;DHT22;114;48.260;10.988;2024-02-23T05:51:28;5.00;1.00
262;DHT22;114;48.260;10.988;2024-02-23T05:53:55;5.00;1.00
262;DHT22;114;48.260;10.988;2024-02-23T05:56:20;5.00;1.00
262;DHT22;114;48.260;10.988;2024-02-23T05:58:48;5.00;1.00
262;DHT22;114;48.260;10.988;2024-02-23T06:01:15;5.00;1.00
262;DHT22;114;48.260;10.988;2024-02-23T06:03:41;5.10;1.00
262;DHT22;114;48.260;10.988;2024-02-23T06:06:10;5.00;1.00
262;DHT22;114;48.260;10.988;2024-02-23T06:08:37;5.00;1.00
262;DHT22;114;48.260;10.988;2024-02-23T06:11:03;5.00;1.00
262;DHT22;114;48.260;10.988;2024-02-23T06:13:30;5.00;1.00
262;DHT22;114;48.260;10.988;2024-02-23T06:15:56;5.00;1.00
262;DHT22;114;48.260;10.988;2024-02-23T06:18:23;5.00;1.00
262;DHT22;114;48.260;10.988;2024-02-23T06:20:49;4.90;1.00
262;DHT22;114;48.260;10.988;2024-02-23T06:23:21;5.00;1.00
262;DHT22;114;48.260;10.988;2024-02-23T06:25:47;5.00;1.00
262;DHT22;114;48.260;10.988;2024-02-23T06:28:13;5.00;1.00
262;DHT22;114;48.260;10.988;2024-02-23T06:30:39;4.90;1.00
262;DHT22;114;48.260;10.988;2024-02-23T06:33:05;5.10;1.00
262;DHT22;114;48.260;10.988;2024-02-23T06:35:31;4.90;1.00
262;DHT22;114;48.260;10.988;2024-02-23T06:37:59;4.90;1.00
262;DHT22;114;48.260;10.988;2024-02-23T06:40:25;4.90;1.00
262;DHT22;114;48.260;10.988;2024-02-23T06:42:52;4.90;1.00
262;DHT22;114;48.260;10.988;2024-02-23T06:45:18;4.90;1.00
262;DHT22;114;48.260;10.988;2024-02-23T06:47:45;4.80;1.00
262;DHT22;114;48.260;10.988;2024-02-23T06:50:10;4.90;1.00
262;DHT22;114;48.260;10.988;2024-02-23T06:52:36;4.90;1.00
262;DHT22;114;48.260;10.988;2024-02-23T06:55:04;4.90;1.00
262;DHT22;114;48.260;10.988;2024-02-23T06:57:30;4.90;1.00
262;DHT22;114;48.260;10.988;2024-02-23T07:00:07;4.80;1.00
262;DHT22;114;48.260;10.988;2024-02-23T07:02:33;4.80;1.00
262;DHT22;114;48.260;10.988;2024-02-23T07:05:02;5.00;1.00
262;DHT22;114;48.260;10.988;2024-02-23T07:07:32;4.80;1.00
262;DHT22;114;48.260;10.988;2024-02-23T07:09:59;5.00;1.00
262;DHT22;114;48.260;10.988;2024-02-23T07:12:25;4.90;1.00
262;DHT22;114;48.260;10.988;2024-02-23T07:14:53;4.80;1.00
262;DHT22;114;48.260;10.988;2024-02-23T07:17:19;4.90;1.00
262;DHT22;114;48.260;10.988;2024-02-23T07:19:45;4.90;1.00
262;DHT22;114;48.260;10.988;2024-02-23T07:22:11;5.00;1.00
262;DHT22;114;48.260;10.988;2024-02-23T07:24:40;4.80;1.00
262;DHT22;114;48.260;10.988;2024-02-23T07:27:06;4.80;1.00
262;DHT22;114;48.260;10.988;2024-02-23T07:29:32;4.90;1.00
262;DHT22;114;48.260;10.988;2024-02-23T07:31:57;4.90;1.00
262;DHT22;114;48.260;10.988;2024-02-23T07:34:25;5.00;1.00
262;DHT22;114;48.260;10.988;2024-02-23T07:36:54;4.90;1.00
262;DHT22;114;48.260;10.988;2024-02-23T07:39:20;4.90;1.00
262;DHT22;114;48.260;10.988;2024-02-23T07:41:47;4.90;1.00
262;DHT22;114;48.260;10.988;2024-02-23T07:44:13;4.90;1.00
262;DHT22;114;48.260;10.988;2024-02-23T07:46:39;5.00;1.00
262;DHT22;114;48.260;10.988;2024-02-23T07:49:05;5.00;1.00
262;DHT22;114;48.260;10.988;2024-02-23T07:51:35;4.90;1.00
262;DHT22;114;48.260;10.988;2024-02-23T07:54:01;4.90;1.00
262;DHT22;114;48.260;10.988;2024-02-23T07:56:27;5.00;1.00
262;DHT22;114;48.260;10.988;2024-02-23T07:58:53;5.10;1.00
262;DHT22;114;48.260;10.988;2024-02-23T08:01:19;5.40;1.00
262;DHT22;114;48.260;10.988;2024-02-23T08:03:46;5.30;1.00
262;DHT22;114;48.260;10.988;2024-02-23T08:06:12;5.40;1.00
262;DHT22;114;48.260;10.988;2024-02-23T08:08:38;5.50;1.00
262;DHT22;114;48.260;10.988;2024-02-23T08:11:04;5.50;1.00
262;DHT22;114;48.260;10.988;2024-02-23T08:13:32;5.50;1.00
262;DHT22;114;48.260;10.988;2024-02-23T08:15:58;5.50;1.00
262;DHT22;114;48.260;10.988;2024-02-23T08:18:24;5.40;1.00
262;DHT22;114;48.260;10.988;2024-02-23T08:20:51;5.40;1.00
262;DHT22;114;48.260;10.988;2024-02-23T08:23:17;5.40;1.00
262;DHT22;114;48.260;10.988;2024-02-23T08:25:44;5.40;1.00
262;DHT22;114;48.260;10.988;2024-02-23T08:28:11;5.40;1.00
262;DHT22;114;48.260;10.988;2024-02-23T08:30:36;5.40;1.00
262;DHT22;114;48.260;10.988;2024-02-23T08:33:02;5.40;1.00
262;DHT22;114;48.260;10.988;2024-02-23T08:35:28;5.50;1.00
262;DHT22;114;48.260;10.988;2024-02-23T08:37:55;5.50;1.00
262;DHT22;114;48.260;10.988;2024-02-23T08:40:20;5.40;1.00
262;DHT22;114;48.260;10.988;2024-02-23T08:42:47;5.40;1.00
262;DHT22;114;48.260;10.988;2024-02-23T08:45:13;5.50;1.00
262;DHT22;114;48.260;10.988;2024-02-23T08:47:41;5.40;1.00
262;DHT22;114;48.260;10.988;2024-02-23T08:50:07;5.40;1.00
262;DHT22;114;48.260;10.988;2024-02-23T08:52:33;5.50;1.00
262;DHT22;114;48.260;10.988;2024-02-23T08:55:00;5.40;1.00
262;DHT22;114;48.260;10.988;2024-02-23T08:57:27;5.40;1.00
262;DHT22;114;48.260;10.988;2024-02-23T08:59:53;5.50;1.00
262;DHT22;114;48.260;10.988;2024-02-23T09:02:19;5.50;1.00
262;DHT22;114;48.260;10.988;2024-02-23T09:04:45;5.60;1.00
262;DHT22;114;48.260;10.988;2024-02-23T09:07:12;5.70;1.00
262;DHT22;114;48.260;10.988;2024-02-23T09:09:38;5.90;1.00
262;DHT22;114;48.260;10.988;2024-02-23T09:12:04;5.70;1.00
262;DHT22;114;48.260;10.988;2024-02-23T09:14:32;5.70;1.00
262;DHT22;114;48.260;10.988;2024-02-23T09:16:58;5.70;1.00
262;DHT22;114;48.260;10.988;2024-02-23T09:19:30;5.70;1.00
262;DHT22;114;48.260;10.988;2024-02-23T09:21:56;5.70;1.00
262;DHT22;114;48.260;10.988;2024-02-23T09:24:21;5.70;1.00
262;DHT22;114;48.260;10.988;2024-02-23T09:26:48;5.60;1.00
262;DHT22;114;48.260;10.988;2024-02-23T09:29:14;5.60;1.00
262;DHT22;114;48.260;10.988;2024-02-23T09:31:40;5.80;1.00
262;DHT22;114;48.260;10.988;2024-02-23T09:34:06;5.60;1.00
262;DHT22;114;48.260;10.988;2024-02-23T09:36:32;5.60;1.00
262;DHT22;114;48.260;10.988;2024-02-23T09:38:58;5.70;1.00
262;DHT22;114;48.260;10.988;2024-02-23T09:41:25;5.70;1.00
262;DHT22;114;48.260;10.988;2024-02-23T09:43:51;5.60;1.00
262;DHT22;114;48.260;10.988;2024-02-23T09:46:18;5.60;1.00
262;DHT22;114;48.260;10.988;2024-02-23T09:48:45;5.70;1.00
262;DHT22;114;48.260;10.988;2024-02-23T09:51:12;5.60;1.00
262;DHT22;114;48.260;10.988;2024-02-23T09:53:38;5.70;1.00
262;DHT22;114;48.260;10.988;2024-02-23T09:56:05;5.70;1.00
262;DHT22;114;48.260;10.988;2024-02-23T09:58:32;5.70;1.00
262;DHT22;114;48.260;10.988;2024-02-23T10:00:58;5.80;1.00
262;DHT22;114;48.260;10.988;2024-02-23T10:03:27;5.80;1.00
262;DHT22;114;48.260;10.988;2024-02-23T10:05:56;5.90;1.00
262;DHT22;114;48.260;10.988;2024-02-23T10:08:23;5.90;1.00
262;DHT22;114;48.260;10.988;2024-02-23T10:10:49;6.00;1.00
262;DHT22;114;48.260;10.988;2024-02-23T10:13:19;6.20;1.00
262;DHT22;114;48.260;10.988;2024-02-23T10:15:49;5.90;1.00
262;DHT22;114;48.260;10.988;2024-02-23T10:18:15;6.00;1.00
262;DHT22;114;48.260;10.988;2024-02-23T10:20:42;6.20;1.00
262;DHT22;114;48.260;10.988;2024-02-23T10:23:09;6.10;1.00
262;DHT22;114;48.260;10.988;2024-02-23T10:25:35;6.20;1.00
262;DHT22;114;48.260;10.988;2024-02-23T10:28:05;6.30;1.00
262;DHT22;114;48.260;10.988;2024-02-23T10:30:32;6.40;1.00
262;DHT22;114;48.260;10.988;2024-02-23T10:32:58;6.10;1.00
262;DHT22;114;48.260;10.988;2024-02-23T10:35:25;6.20;1.00
262;DHT22;114;48.260;10.988;2024-02-23T10:37:52;6.30;1.00
262;DHT22;114;48.260;10.988;2024-02-23T10:40:19;6.30;1.00
262;DHT22;114;48.260;10.988;2024-02-23T10:42:47;6.30;1.00
262;DHT22;114;48.260;10.988;2024-02-23T10:45:18;6.40;1.00
262;DHT22;114;48.260;10.988;2024-02-23T10:47:44;6.30;1.00
262;DHT22;114;48.260;10.988;2024-02-23T10:50:11;6.20;1.00
262;DHT22;114;48.260;10.988;2024-02-23T10:52:41;6.20;1.00
262;DHT22;114;48.260;10.988;2024-02-23T10:55:08;6.30;1.00
262;DHT22;114;48.260;10.988;2024-02-23T10:57:35;6.30;1.00
262;DHT22;114;48.260;10.988;2024-02-23T11:00:02;6.20;1.00
262;DHT22;114;48.260;10.988;2024-02-23T11:02:33;6.20;1.00
262;DHT22;114;48.260;10.988;2024-02-23T11:05:02;6.20;1.00
262;DHT22;114;48.260;10.988;2024-02-23T11:07:30;6.30;1.00
262;DHT22;114;48.260;10.988;2024-02-23T11:10:04;6.10;1.00
262;DHT22;114;48.260;10.988;2024-02-23T11:12:34;6.20;1.00
262;DHT22;114;48.260;10.988;2024-02-23T11:15:02;6.20;1.00
262;DHT22;114;48.260;10.988;2024-02-23T11:17:36;6.10;1.00
262;DHT22;114;48.260;10.988;2024-02-23T11:20:06;6.10;1.00
262;DHT22;114;48.260;10.988;2024-02-23T11:22:34;6.10;1.00
262;DHT22;114;48.260;10.988;2024-02-23T11:25:07;6.20;1.00
262;DHT22;114;48.260;10.988;2024-02-23T11:27:37;6.30;1.00
262;DHT22;114;48.260;10.988;2024-02-23T11:30:07;6.30;1.00
262;DHT22;114;48.260;10.988;2024-02-23T11:32:44;6.40;1.00
262;DHT22;114;48.260;10.988;2024-02-23T11:35:18;6.40;1.00
262;DHT22;114;48.260;10.988;2024-02-23T11:37:56;6.50;1.00
262;DHT22;114;48.260;10.988;2024-02-23T11:40:32;6.40;1.00
262;DHT22;114;48.260;10.988;2024-02-23T11:42:59;6.70;1.00
262;DHT22;114;48.260;10.988;2024-02-23T11:45:31;6.80;1.00
262;DHT22;114;48.260;10.988;2024-02-23T11:47:56;6.80;1.00
262;DHT22;114;48.260;10.988;2024-02-23T11:50:22;6.80;1.00
262;DHT22;114;48.260;10.988;2024-02-23T11:52:48;6.60;1.00
262;DHT22;114;48.260;10.988;2024-02-23T11:55:19;6.60;1.00
262;DHT22;114;48.260;10.988;2024-02-23T11:57:48;6.60;1.00
262;DHT22;114;48.260;10.988;2024-02-23T12:00:14;6.60;1.00
262;DHT22;114;48.260;10.988;2024-02-23T12:02:40;6.60;1.00
262;DHT22;114;48.260;10.988;2024-02-23T12:05:06;6.80;1.00
262;DHT22;114;48.260;10.988;2024-02-23T12:07:33;6.60;1.00
262;DHT22;114;48.260;10.988;2024-02-23T12:10:01;6.70;1.00
262;DHT22;114;48.260;10.988;2024-02-23T12:12:26;6.70;1.00
262;DHT22;114;48.260;10.988;2024-02-23T12:14:53;6.70;1.00
262;DHT22;114;48.260;10.988;2024-02-23T12:17:19;6.80;1.00
262;DHT22;114;48.260;10.988;2024-02-23T12:19:45;6.60;1.00
262;DHT22;114;48.260;10.988;2024-02-23T12:22:11;6.70;1.00
262;DHT22;114;48.260;10.988;2024-02-23T12:24:37;6.60;1.00
262;DHT22;114;48.260;10.988;2024-02-23T12:27:03;6.60;1.00
262;DHT22;114;48.260;10.988;2024-02-23T12:29:30;6.70;1.00
262;DHT22;114;48.260;10.988;2024-02-23T12:32:03;6.70;1.00
262;DHT22;114;48.260;10.988;2024-02-23T12:34:29;6.70;1.00
262;DHT22;114;48.260;10.988;2024-02-23T12:36:55;6.80;1.00
262;DHT22;114;48.260;10.988;2024-02-23T12:39:26;6.60;1.00
262;DHT22;114;48.260;10.988;2024-02-23T12:41:56;6.70;1.00
262;DHT22;114;48.260;10.988;2024-02-23T12:44:24;6.60;1.00
262;DHT22;114;48.260;10.988;2024-02-23T12:46:50;6.50;1.00
262;DHT22;114;48.260;10.988;2024-02-23T12:49:15;6.50;1.00
262;DHT22;114;48.260;10.988;2024-02-23T12:51:41;6.70;1.00
262;DHT22;114;48.260;10.988;2024-02-23T12:54:07;6.70;1.00
262;DHT22;114;48.260;10.988;2024-02-23T12:56:33;6.70;1.00
262;DHT22;114;48.260;10.988;2024-02-23T12:58:58;6.70;1.00
262;DHT22;114;48.260;10.988;2024-02-23T13:01:24;6.90;1.00
262;DHT22;114;48.260;10.988;2024-02-23T13:03:50;6.80;1.00
262;DHT22;114;48.260;10.988;2024-02-23T13:06:15;6.80;1.00
262;DHT22;114;48.260;10.988;2024-02-23T13:08:41;6.80;1.00
262;DHT22;114;48.260;10.988;2024-02-23T13:11:08;6.60;1.00
262;DHT22;114;48.260;10.988;2024-02-23T13:13:37;6.60;1.00
262;DHT22;114;48.260;10.988;2024-02-23T13:16:04;6.80;1.00
262;DHT22;114;48.260;10.988;2024-02-23T13:18:32;6.80;1.00
262;DHT22;114;48.260;10.988;2024-02-23T13:20:59;6.80;1.00
262;DHT22;114;48.260;10.988;2024-02-23T13:23:24;6.70;1.00
262;DHT22;114;48.260;10.988;2024-02-23T13:25:51;6.70;1.00
262;DHT22;114;48.260;10.988;2024-02-23T13:28:17;6.50;1.00
262;DHT22;114;48.260;10.988;2024-02-23T13:30:42;6.60;1.00
262;DHT22;114;48.260;10.988;2024-02-23T13:33:10;6.50;1.00
262;DHT22;114;48.260;10.988;2024-02-23T13:35:36;6.40;1.00
262;DHT22;114;48.260;10.988;2024-02-23T13:38:03;6.50;1.00
262;DHT22;114;48.260;10.988;2024-02-23T13:40:29;6.40;1.00
262;DHT22;114;48.260;10.988;2024-02-23T13:42:56;6.50;1.00
262;DHT22;114;48.260;10.988;2024-02-23T13:45:21;6.50;1.00
262;DHT22;114;48.260;10.988;2024-02-23T13:48:01;6.50;1.00
262;DHT22;114;48.260;10.988;2024-02-23T13:50:28;6.70;1.00
262;DHT22;114;48.260;10.988;2024-02-23T13:53:03;6.70;1.00
262;DHT22;114;48.260;10.988;2024-02-23T13:55:29;6.60;1.00
262;DHT22;114;48.260;10.988;2024-02-23T13:57:55;6.70;1.00
262;DHT22;114;48.260;10.988;2024-02-23T14:00:21;6.70;1.00
262;DHT22;114;48.260;10.988;2024-02-23T14:02:47;6.60;1.00
262;DHT22;114;48.260;10.988;2024-02-23T14:05:13;6.50;1.00
262;DHT22;114;48.260;10.988;2024-02-23T14:07:42;6.50;1.00
262;DHT22;114;48.260;10.988;2024-02-23T14:10:10;6.50;1.00
262;DHT22;114;48.260;10.988;2024-02-23T14:12:36;6.40;1.00
262;DHT22;114;48.260;10.988;2024-02-23T14:15:01;6.30;1.00
262;DHT22;114;48.260;10.988;2024-02-23T14:17:27;6.40;1.00
262;DHT22;114;48.260;10.988;2024-02-23T14:19:54;6.30;1.00
262;DHT22;114;48.260;10.988;2024-02-23T14:22:20;6.20;1.00
262;DHT22;114;48.260;10.988;2024-02-23T14:24:46;6.10;1.00
262;DHT22;114;48.260;10.988;2024-02-23T14:27:18;6.00;1.00
262;DHT22;114;48.260;10.988;2024-02-23T14:29:44;6.10;1.00
262;DHT22;114;48.260;10.988;2024-02-23T14:32:16;6.10;1.00
262;DHT22;114;48.260;10.988;2024-02-23T14:34:43;6.10;1.00
262;DHT22;114;48.260;10.988;2024-02-23T14:37:11;6.10;1.00
262;DHT22;114;48.260;10.988;2024-02-23T14:39:37;6.10;1.00
262;DHT22;114;48.260;10.988;2024-02-23T14:42:02;6.00;1.00
262;DHT22;114;48.260;10.988;2024-02-23T14:44:29;6.00;1.00
262;DHT22;114;48.260;10.988;2024-02-23T14:46:54;6.00;1.00
262;DHT22;114;48.260;10.988;2024-02-23T14:49:20;6.10;1.00
262;DHT22;114;48.260;10.988;2024-02-23T14:51:46;6.00;1.00
262;DHT22;114;48.260;10.988;2024-02-23T14:54:14;6.10;1.00
262;DHT22;114;48.260;10.988;2024-02-23T14:56:40;6.00;1.00
262;DHT22;114;48.260;10.988;2024-02-23T14:59:07;6.00;1.00
262;DHT22;114;48.260;10.988;2024-02-23T15:01:39;6.20;1.00
262;DHT22;114;48.260;10.988;2024-02-23T15:04:08;6.00;1.00
262;DHT22;114;48.260;10.988;2024-02-23T15:06:34;6.00;1.00
262;DHT22;114;48.260;10.988;2024-02-23T15:09:01;5.90;1.00
262;DHT22;114;48.260;10.988;2024-02-23T15:11:29;6.10;1.00
262;DHT22;114;48.260;10.988;2024-02-23T15:13:55;5.90;1.00
262;DHT22;114;48.260;10.988;2024-02-23T15:16:27;5.90;1.00
262;DHT22;114;48.260;10.988;2024-02-23T15:18:53;5.80;1.00
262;DHT22;114;48.260;10.988;2024-02-23T15:21:19;5.90;1.00
262;DHT22;114;48.260;10.988;2024-02-23T15:23:46;5.70;1.00
262;DHT22;114;48.260;10.988;2024-02-23T15:26:13;5.70;1.00
262;DHT22;114;48.260;10.988;2024-02-23T15:28:39;5.70;1.00
262;DHT22;114;48.260;10.988;2024-02-23T15:31:06;5.70;1.00
262;DHT22;114;48.260;10.988;2024-02-23T15:33:32;5.80;1.00
262;DHT22;114;48.260;10.988;2024-02-23T15:35:57;5.70;1.00
262;DHT22;114;48.260;10.988;2024-02-23T15:38:23;5.60;1.00
262;DHT22;114;48.260;10.988;2024-02-23T15:40:58;5.50;1.00
262;DHT22;114;48.260;10.988;2024-02-23T15:43:24;5.80;1.00
262;DHT22;114;48.260;10.988;2024-02-23T15:45:53;5.50;1.00
262;DHT22;114;48.260;10.988;2024-02-23T15:48:19;5.40;1.00
262;DHT22;114;48.260;10.988;2024-02-23T15:50:45;5.40;1.00
262;DHT22;114;48.260;10.988;2024-02-23T15:53:10;5.30;1.00
262;DHT22;114;48.260;10.988;2024-02-23T15:55:36;5.30;1.00
262;DHT22;114;48.260;10.988;2024-02-23T15:58:02;5.30;1.00
262;DHT22;114;48.260;10.988;2024-02-23T16:00:29;5.30;1.00
262;DHT22;114;48.260;10.988;2024-02-23T16:02:55;5.20;1.00
262;DHT22;114;48.260;10.988;2024-02-23T16:05:20;5.10;1.00
262;DHT22;114;48.260;10.988;2024-02-23T16:07:46;5.30;1.00
262;DHT22;114;48.260;10.988;2024-02-23T16:10:15;5.10;1.00
262;DHT22;114;48.260;10.988;2024-02-23T16:12:42;5.10;1.00
262;DHT22;114;48.260;10.988;2024-02-23T16:15:08;5.00;1.00
262;DHT22;114;48.260;10.988;2024-02-23T16:17:37;5.00;1.00
262;DHT22;114;48.260;10.988;2024-02-23T16:20:03;4.90;1.00
262;DHT22;114;48.260;10.988;2024-02-23T16:22:30;4.90;1.00
262;DHT22;114;48.260;10.988;2024-02-23T16:24:56;4.80;1.00
262;DHT22;114;48.260;10.988;2024-02-23T16:27:21;4.90;1.00
262;DHT22;114;48.260;10.988;2024-02-23T16:29:47;4.80;1.00
262;DHT22;114;48.260;10.988;2024-02-23T16:32:13;4.90;1.00
262;DHT22;114;48.260;10.988;2024-02-23T16:34:38;4.80;1.00
262;DHT22;114;48.260;10.988;2024-02-23T16:37:04;4.80;1.00
262;DHT22;114;48.260;10.988;2024-02-23T16:39:30;4.90;1.00
262;DHT22;114;48.260;10.988;2024-02-23T16:41:56;4.80;1.00
262;DHT22;114;48.260;10.988;2024-02-23T16:44:21;4.80;1.00
262;DHT22;114;48.260;10.988;2024-02-23T16:46:49;4.70;1.00
262;DHT22;114;48.260;10.988;2024-02-23T16:49:15;4.80;1.00